KAUS/AUS METAR and TAF weather

Enter ICAO airport designator
Station Type Date Time Source
KAUS METAR 2020/07/10 00:53 UTC NOAA

KAUS 100053Z 16011KT 10SM FEW060 34/22 A2986 RMK AO2 SLP097 T03390217 $


Station Type Date Time Source
KAUS Decoded METAR 2020/07/10 00:53 UTC NOAA

AUSTIN-BERGSTROM INTERNATIONAL AIRPORT, TX, United States (KAUS) 30-11N 097-41W 172M
Jul 09, 2020 - 08:53 PM EDT / 2020.07.10 0053 UTC
Wind: from the SSE (160 degrees) at 13 MPH (11 KT):0
Visibility: 10 mile(s):0
Sky conditions: mostly clear
Temperature: 93.0 F (33.9 C)
Heat index: 100.0 F (37.8 C):1
Dew Point: 71.1 F (21.7 C)
Relative Humidity: 49%
Pressure (altimeter): 29.86 in. Hg (1011 hPa)
ob: KAUS 100053Z 16011KT 10SM FEW060 34/22 A2986 RMK AO2 SLP097 T03390217
cycle: 1

Station Type Date Time Source
KAUS TAF 2020/07/09 18:39 UTC NOAA

TAF KAUS 091736Z 0918/1024 17014G24KT P6SM SCT040
FM100000 15013KT P6SM FEW250
FM100700 19008KT P6SM BKN018
FM101600 17012G22KT P6SM FEW040

Example: see airport list